sensor_id;sensor_type;location;lat;lon;timestamp;pressure;altitude;pressure_sealevel;temperature;humidity
78313;BME280;67568;47.438;21.408;2023-02-28T00:00:55;101620.09;;;-0.38;67.10
78313;BME280;67568;47.438;21.408;2023-02-28T00:03:21;101627.00;;;-0.42;66.43
78313;BME280;67568;47.438;21.408;2023-02-28T00:05:48;101634.34;;;-0.36;66.60
78313;BME280;67568;47.438;21.408;2023-02-28T00:08:15;101638.09;;;-0.37;67.18
78313;BME280;67568;47.438;21.408;2023-02-28T00:10:41;101639.16;;;-0.38;67.21
78313;BME280;67568;47.438;21.408;2023-02-28T00:13:08;101628.22;;;-0.45;67.03
78313;BME280;67568;47.438;21.408;2023-02-28T00:15:38;101626.06;;;-0.50;67.53
78313;BME280;67568;47.438;21.408;2023-02-28T00:18:04;101630.25;;;-0.54;68.06
78313;BME280;67568;47.438;21.408;2023-02-28T00:20:34;101639.56;;;-0.41;66.54
78313;BME280;67568;47.438;21.408;2023-02-28T00:23:03;101642.94;;;-0.39;67.69
78313;BME280;67568;47.438;21.408;2023-02-28T00:25:32;101642.31;;;-0.35;67.66
78313;BME280;67568;47.438;21.408;2023-02-28T00:28:01;101638.50;;;-0.40;67.14
78313;BME280;67568;47.438;21.408;2023-02-28T00:30:28;101638.91;;;-0.43;67.35
78313;BME280;67568;47.438;21.408;2023-02-28T00:32:55;101646.66;;;-0.40;67.68
78313;BME280;67568;47.438;21.408;2023-02-28T00:35:21;101646.66;;;-0.40;67.68
78313;BME280;67568;47.438;21.408;2023-02-28T00:37:48;101642.97;;;-0.33;67.00
78313;BME280;67568;47.438;21.408;2023-02-28T00:40:15;101642.53;;;-0.36;67.30
78313;BME280;67568;47.438;21.408;2023-02-28T00:42:42;101653.47;;;-0.30;67.12
78313;BME280;67568;47.438;21.408;2023-02-28T00:45:08;101645.31;;;-0.23;67.00
78313;BME280;67568;47.438;21.408;2023-02-28T00:47:35;101654.97;;;-0.20;66.85
78313;BME280;67568;47.438;21.408;2023-02-28T00:50:03;101649.94;;;-0.24;67.12
78313;BME280;67568;47.438;21.408;2023-02-28T00:52:30;101658.53;;;-0.20;66.92
78313;BME280;67568;47.438;21.408;2023-02-28T00:54:57;101662.34;;;-0.14;67.35
78313;BME280;67568;47.438;21.408;2023-02-28T00:57:23;101662.81;;;-0.11;66.00
78313;BME280;67568;47.438;21.408;2023-02-28T00:59:53;101662.81;;;-0.11;67.35
78313;BME280;67568;47.438;21.408;2023-02-28T01:02:26;101666.63;;;-0.05;66.76
78313;BME280;67568;47.438;21.408;2023-02-28T01:04:52;101666.66;;;0.02;66.09
78313;BME280;67568;47.438;21.408;2023-02-28T01:07:19;101663.34;;;0.06;66.34
78313;BME280;67568;47.438;21.408;2023-02-28T01:09:46;101670.19;;;-0.05;65.74
78313;BME280;67568;47.438;21.408;2023-02-28T01:12:12;101664.59;;;0.04;65.48
78313;BME280;67568;47.438;21.408;2023-02-28T01:14:39;101665.00;;;0.01;67.16
78313;BME280;67568;47.438;21.408;2023-02-28T01:17:06;101662.06;;;0.02;66.12
78313;BME280;67568;47.438;21.408;2023-02-28T01:19:39;101668.34;;;0.03;66.07
78313;BME280;67568;47.438;21.408;2023-02-28T01:22:06;101660.81;;;0.05;66.72
78313;BME280;67568;47.438;21.408;2023-02-28T01:24:34;101665.41;;;-0.03;65.84
78313;BME280;67568;47.438;21.408;2023-02-28T01:27:00;101659.97;;;0.04;65.89
78313;BME280;67568;47.438;21.408;2023-02-28T01:29:27;101665.44;;;0.04;65.89
78313;BME280;67568;47.438;21.408;2023-02-28T01:31:55;101656.81;;;0.01;66.23
78313;BME280;67568;47.438;21.408;2023-02-28T01:34:22;101657.41;;;-0.04;66.73
78313;BME280;67568;47.438;21.408;2023-02-28T01:36:49;101652.34;;;-0.07;67.22
78313;BME280;67568;47.438;21.408;2023-02-28T01:39:16;101654.09;;;0.01;66.86
78313;BME280;67568;47.438;21.408;2023-02-28T01:41:42;101654.72;;;0.03;66.23
78313;BME280;67568;47.438;21.408;2023-02-28T01:47:14;101657.25;;;0.04;66.89
78313;BME280;67568;47.438;21.408;2023-02-28T01:49:42;101657.41;;;-0.04;67.06
78313;BME280;67568;47.438;21.408;2023-02-28T01:52:09;101656.19;;;0.05;65.97
78313;BME280;67568;47.438;21.408;2023-02-28T01:54:37;101662.44;;;-0.01;67.46
78313;BME280;67568;47.438;21.408;2023-02-28T01:57:07;101665.66;;;0.09;66.77
78313;BME280;67568;47.438;21.408;2023-02-28T01:59:47;101674.84;;;0.02;67.66
78313;BME280;67568;47.438;21.408;2023-02-28T02:02:15;101669.22;;;0.10;66.35
78313;BME280;67568;47.438;21.408;2023-02-28T02:04:54;101673.84;;;0.09;66.58
78313;BME280;67568;47.438;21.408;2023-02-28T02:07:25;101666.34;;;0.18;67.62
78313;BME280;67568;47.438;21.408;2023-02-28T02:10:20;101668.44;;;0.16;65.98
78313;BME280;67568;47.438;21.408;2023-02-28T02:18:53;101657.94;;;0.13;66.50
78313;BME280;67568;47.438;21.408;2023-02-28T02:30:01;101659.09;;;0.32;66.73
78313;BME280;67568;47.438;21.408;2023-02-28T02:33:09;101674.41;;;0.39;67.32
78313;BME280;67568;47.438;21.408;2023-02-28T02:36:01;101664.31;;;0.33;66.90
78313;BME280;67568;47.438;21.408;2023-02-28T02:41:54;101660.94;;;0.31;66.83
78313;BME280;67568;47.438;21.408;2023-02-28T02:44:06;101661.44;;;0.41;66.57
78313;BME280;67568;47.438;21.408;2023-02-28T02:46:41;101664.00;;;0.50;66.84
78313;BME280;67568;47.438;21.408;2023-02-28T02:49:15;101665.66;;;0.51;66.98
78313;BME280;67568;47.438;21.408;2023-02-28T02:51:46;101655.56;;;0.38;66.66
78313;BME280;67568;47.438;21.408;2023-02-28T02:54:37;101653.50;;;0.47;66.01
78313;BME280;67568;47.438;21.408;2023-02-28T02:57:11;101649.25;;;0.37;66.71
78313;BME280;67568;47.438;21.408;2023-02-28T02:59:42;101645.97;;;0.49;66.30
78313;BME280;67568;47.438;21.408;2023-02-28T03:02:12;101656.47;;;0.52;67.21
78313;BME280;67568;47.438;21.408;2023-02-28T03:04:50;101653.72;;;0.52;66.88
78313;BME280;67568;47.438;21.408;2023-02-28T03:07:18;101654.31;;;0.40;66.40
78313;BME280;67568;47.438;21.408;2023-02-28T03:09:52;101656.78;;;0.35;67.86
78313;BME280;67568;47.438;21.408;2023-02-28T03:12:24;101644.03;;;0.42;67.21
78313;BME280;67568;47.438;21.408;2023-02-28T03:18:17;101660.19;;;0.44;68.47
78313;BME280;67568;47.438;21.408;2023-02-28T03:20:58;101670.94;;;0.52;67.00
78313;BME280;67568;47.438;21.408;2023-02-28T03:23:54;101673.84;;;0.51;66.84
78313;BME280;67568;47.438;21.408;2023-02-28T03:26:27;101675.31;;;0.53;67.14
78313;BME280;67568;47.438;21.408;2023-02-28T03:29:07;101675.72;;;0.43;68.07
78313;BME280;67568;47.438;21.408;2023-02-28T03:32:00;101676.72;;;0.36;67.80
78313;BME280;67568;47.438;21.408;2023-02-28T03:34:36;101688.91;;;0.40;68.38
78313;BME280;67568;47.438;21.408;2023-02-28T03:37:14;101684.88;;;0.36;68.63
78313;BME280;67568;47.438;21.408;2023-02-28T03:39:49;101689.13;;;0.45;67.55
78313;BME280;67568;47.438;21.408;2023-02-28T03:42:22;101693.16;;;0.56;68.16
78313;BME280;67568;47.438;21.408;2023-02-28T03:44:53;101690.66;;;0.54;67.38
78313;BME280;67568;47.438;21.408;2023-02-28T03:47:27;101683.91;;;0.50;67.45
78313;BME280;67568;47.438;21.408;2023-02-28T03:50:03;101690.41;;;0.49;68.51
78313;BME280;67568;47.438;21.408;2023-02-28T03:52:34;101694.22;;;0.55;68.48
78313;BME280;67568;47.438;21.408;2023-02-28T03:55:10;101682.25;;;0.56;68.13
78313;BME280;67568;47.438;21.408;2023-02-28T04:00:27;101677.03;;;0.54;68.74
78313;BME280;67568;47.438;21.408;2023-02-28T04:02:56;101675.38;;;0.60;67.26
78313;BME280;67568;47.438;21.408;2023-02-28T04:05:24;101671.56;;;0.54;68.33
78313;BME280;67568;47.438;21.408;2023-02-28T04:07:51;101669.28;;;0.58;67.60
78313;BME280;67568;47.438;21.408;2023-02-28T04:10:18;101668.63;;;0.56;67.66
78313;BME280;67568;47.438;21.408;2023-02-28T04:12:45;101674.72;;;0.58;69.14
78313;BME280;67568;47.438;21.408;2023-02-28T04:15:11;101676.63;;;0.57;68.02
78313;BME280;67568;47.438;21.408;2023-02-28T04:17:38;101676.44;;;0.65;68.30
78313;BME280;67568;47.438;21.408;2023-02-28T04:20:05;101680.84;;;0.66;68.26
78313;BME280;67568;47.438;21.408;2023-02-28T04:22:32;101682.50;;;0.61;68.85
78313;BME280;67568;47.438;21.408;2023-02-28T04:25:01;101685.88;;;0.70;68.08
78313;BME280;67568;47.438;21.408;2023-02-28T04:27:28;101690.69;;;0.67;67.68
78313;BME280;67568;47.438;21.408;2023-02-28T04:29:57;101686.31;;;0.73;68.00
78313;BME280;67568;47.438;21.408;2023-02-28T04:32:31;101684.66;;;0.79;67.30
78313;BME280;67568;47.438;21.408;2023-02-28T04:35:01;101683.41;;;0.81;66.52
78313;BME280;67568;47.438;21.408;2023-02-28T04:37:28;101686.72;;;0.70;67.60
78313;BME280;67568;47.438;21.408;2023-02-28T04:39:54;101698.94;;;0.81;67.58
78313;BME280;67568;47.438;21.408;2023-02-28T04:42:21;101696.00;;;0.82;67.35
78313;BME280;67568;47.438;21.408;2023-02-28T04:44:48;101698.94;;;0.81;67.74
78313;BME280;67568;47.438;21.408;2023-02-28T04:47:18;101690.28;;;0.71;67.59
78313;BME280;67568;47.438;21.408;2023-02-28T04:49:44;101691.81;;;0.80;67.39
78313;BME280;67568;47.438;21.408;2023-02-28T04:52:11;101688.22;;;0.79;67.42
78313;BME280;67568;47.438;21.408;2023-02-28T04:54:38;101698.09;;;0.80;67.53
78313;BME280;67568;47.438;21.408;2023-02-28T04:57:05;101700.22;;;0.85;67.57
78313;BME280;67568;47.438;21.408;2023-02-28T04:59:31;101698.97;;;0.87;67.74
78313;BME280;67568;47.438;21.408;2023-02-28T05:01:58;101693.28;;;0.82;68.49
78313;BME280;67568;47.438;21.408;2023-02-28T05:04:27;101685.53;;;0.93;67.55
78313;BME280;67568;47.438;21.408;2023-02-28T05:06:54;101694.56;;;0.93;67.01
78313;BME280;67568;47.438;21.408;2023-02-28T05:09:20;101695.19;;;0.88;66.85
78313;BME280;67568;47.438;21.408;2023-02-28T05:11:50;101688.28;;;0.93;66.65
78313;BME280;67568;47.438;21.408;2023-02-28T05:14:16;101679.63;;;0.76;68.23
78313;BME280;67568;47.438;21.408;2023-02-28T05:16:43;101684.00;;;0.77;68.88
78313;BME280;67568;47.438;21.408;2023-02-28T05:19:09;101690.53;;;0.82;67.76
78313;BME280;67568;47.438;21.408;2023-02-28T05:21:39;101684.88;;;0.77;68.16
78313;BME280;67568;47.438;21.408;2023-02-28T05:24:10;101683.00;;;0.84;68.46
78313;BME280;67568;47.438;21.408;2023-02-28T05:26:40;101687.03;;;0.88;66.92
78313;BME280;67568;47.438;21.408;2023-02-28T05:29:07;101683.22;;;0.89;66.54
78313;BME280;67568;47.438;21.408;2023-02-28T05:31:37;101687.03;;;0.88;68.34
78313;BME280;67568;47.438;21.408;2023-02-28T05:34:07;101685.31;;;0.87;67.51
78313;BME280;67568;47.438;21.408;2023-02-28T05:36:39;101695.41;;;0.87;67.08
78313;BME280;67568;47.438;21.408;2023-02-28T05:39:06;101690.19;;;0.99;67.21
78313;BME280;67568;47.438;21.408;2023-02-28T05:41:35;101686.00;;;1.03;66.47
78313;BME280;67568;47.438;21.408;2023-02-28T05:44:01;101695.22;;;1.02;67.10
78313;BME280;67568;47.438;21.408;2023-02-28T05:46:28;101688.94;;;1.01;67.38
78313;BME280;67568;47.438;21.408;2023-02-28T05:48:54;101691.66;;;0.95;67.06
78313;BME280;67568;47.438;21.408;2023-02-28T05:51:21;101690.41;;;0.97;67.13
78313;BME280;67568;47.438;21.408;2023-02-28T05:53:48;101695.63;;;0.92;68.03
78313;BME280;67568;47.438;21.408;2023-02-28T05:56:15;101687.63;;;0.84;68.36
78313;BME280;67568;47.438;21.408;2023-02-28T05:58:41;101679.44;;;0.90;68.17
78313;BME280;67568;47.438;21.408;2023-02-28T06:01:32;101683.06;;;0.98;67.07
78313;BME280;67568;47.438;21.408;2023-02-28T06:04:00;101690.59;;;0.89;66.94
78313;BME280;67568;47.438;21.408;2023-02-28T06:06:28;101690.16;;;0.85;68.57
78313;BME280;67568;47.438;21.408;2023-02-28T06:08:56;101680.50;;;0.89;67.51
78313;BME280;67568;47.438;21.408;2023-02-28T06:11:24;101681.09;;;0.78;67.89
78313;BME280;67568;47.438;21.408;2023-02-28T06:13:53;101680.84;;;0.60;69.46
78313;BME280;67568;47.438;21.408;2023-02-28T06:16:20;101675.81;;;0.63;70.03
78313;BME280;67568;47.438;21.408;2023-02-28T06:18:51;101678.09;;;0.60;69.51
78313;BME280;67568;47.438;21.408;2023-02-28T06:21:18;101679.56;;;0.62;69.61
78313;BME280;67568;47.438;21.408;2023-02-28T06:23:45;101690.94;;;0.73;68.93
78313;BME280;67568;47.438;21.408;2023-02-28T06:26:19;101684.22;;;0.75;69.07
78313;BME280;67568;47.438;21.408;2023-02-28T06:28:49;101685.66;;;0.71;70.51
78313;BME280;67568;47.438;21.408;2023-02-28T06:31:17;101687.31;;;0.59;69.77
78313;BME280;67568;47.438;21.408;2023-02-28T06:33:45;101686.31;;;0.73;70.87
78313;BME280;67568;47.438;21.408;2023-02-28T06:36:14;101685.88;;;0.63;70.58
78313;BME280;67568;47.438;21.408;2023-02-28T06:38:41;101678.53;;;0.70;71.03
78313;BME280;67568;47.438;21.408;2023-02-28T06:41:11;101691.09;;;0.58;71.41
78313;BME280;67568;47.438;21.408;2023-02-28T06:43:44;101689.44;;;0.63;70.23
78313;BME280;67568;47.438;21.408;2023-02-28T06:46:14;101698.31;;;0.79;71.14
78313;BME280;67568;47.438;21.408;2023-02-28T06:48:46;101700.63;;;0.82;71.35
78313;BME280;67568;47.438;21.408;2023-02-28T06:51:17;101702.75;;;0.86;70.16
78313;BME280;67568;47.438;21.408;2023-02-28T06:53:44;101709.03;;;0.94;71.08
78313;BME280;67568;47.438;21.408;2023-02-28T06:56:13;101712.06;;;1.05;69.77
78313;BME280;67568;47.438;21.408;2023-02-28T06:58:40;101711.59;;;1.02;69.24
78313;BME280;67568;47.438;21.408;2023-02-28T07:01:09;101709.53;;;1.10;70.19
78313;BME280;67568;47.438;21.408;2023-02-28T07:03:39;101712.72;;;1.21;69.82
78313;BME280;67568;47.438;21.408;2023-02-28T07:06:06;101721.72;;;1.21;69.23
78313;BME280;67568;47.438;21.408;2023-02-28T07:08:34;101712.06;;;1.19;70.00
78313;BME280;67568;47.438;21.408;2023-02-28T07:11:22;101738.13;;;1.28;69.19
78313;BME280;67568;47.438;21.408;2023-02-28T07:13:58;101740.19;;;1.19;72.82
78313;BME280;67568;47.438;21.408;2023-02-28T07:16:26;101732.00;;;1.12;72.98
78313;BME280;67568;47.438;21.408;2023-02-28T07:18:56;101728.38;;;0.99;74.37
78313;BME280;67568;47.438;21.408;2023-02-28T07:21:25;101744.19;;;1.17;74.49
78313;BME280;67568;47.438;21.408;2023-02-28T07:23:52;101747.78;;;1.30;74.91
78313;BME280;67568;47.438;21.408;2023-02-28T07:26:22;101747.34;;;1.20;74.49
78313;BME280;67568;47.438;21.408;2023-02-28T07:28:52;101746.53;;;1.26;75.26
78313;BME280;67568;47.438;21.408;2023-02-28T07:31:19;101739.19;;;1.33;74.88
78313;BME280;67568;47.438;21.408;2023-02-28T07:33:45;101742.56;;;1.35;75.08
78313;BME280;67568;47.438;21.408;2023-02-28T07:36:14;101742.13;;;1.32;74.46
78313;BME280;67568;47.438;21.408;2023-02-28T07:38:43;101751.63;;;1.43;72.84
78313;BME280;67568;47.438;21.408;2023-02-28T07:41:21;101745.31;;;1.49;73.16
78313;BME280;67568;47.438;21.408;2023-02-28T07:43:55;101746.16;;;1.56;72.48
78313;BME280;67568;47.438;21.408;2023-02-28T07:46:22;101743.44;;;1.69;72.40
78313;BME280;67568;47.438;21.408;2023-02-28T07:48:56;101737.78;;;1.71;71.81
78313;BME280;67568;47.438;21.408;2023-02-28T07:51:23;101749.16;;;1.94;71.34
78313;BME280;67568;47.438;21.408;2023-02-28T07:53:50;101738.84;;;1.96;72.16
78313;BME280;67568;47.438;21.408;2023-02-28T07:56:25;101738.19;;;2.08;71.00
78313;BME280;67568;47.438;21.408;2023-02-28T07:58:53;101738.19;;;2.08;72.50
78313;BME280;67568;47.438;21.408;2023-02-28T08:01:20;101737.13;;;2.22;71.43
78313;BME280;67568;47.438;21.408;2023-02-28T08:03:53;101733.53;;;2.35;70.90
78313;BME280;67568;47.438;21.408;2023-02-28T08:06:27;101730.59;;;2.30;71.35
78313;BME280;67568;47.438;21.408;2023-02-28T08:08:55;101740.63;;;2.56;69.65
78313;BME280;67568;47.438;21.408;2023-02-28T08:11:45;101746.53;;;2.59;69.96
78313;BME280;67568;47.438;21.408;2023-02-28T08:14:18;101746.34;;;2.54;68.53
78313;BME280;67568;47.438;21.408;2023-02-28T08:16:48;101752.84;;;2.53;68.93
78313;BME280;67568;47.438;21.408;2023-02-28T08:19:15;101750.31;;;2.58;68.67
78313;BME280;67568;47.438;21.408;2023-02-28T08:21:42;101754.91;;;2.71;67.48
78313;BME280;67568;47.438;21.408;2023-02-28T08:24:22;101759.13;;;2.74;67.82
78313;BME280;67568;47.438;21.408;2023-02-28T08:27:03;101753.44;;;2.68;66.61
78313;BME280;67568;47.438;21.408;2023-02-28T08:29:30;101750.31;;;2.65;68.01
78313;BME280;67568;47.438;21.408;2023-02-28T08:31:57;101759.97;;;2.61;66.91
78313;BME280;67568;47.438;21.408;2023-02-28T08:34:26;101760.41;;;2.58;66.91
78313;BME280;67568;47.438;21.408;2023-02-28T08:36:55;101760.38;;;2.71;67.57
78313;BME280;67568;47.438;21.408;2023-02-28T08:39:22;101750.69;;;2.82;66.63
78313;BME280;67568;47.438;21.408;2023-02-28T08:41:51;101757.03;;;2.69;66.38
78313;BME280;67568;47.438;21.408;2023-02-28T08:44:32;101748.34;;;2.85;66.88
78313;BME280;67568;47.438;21.408;2023-02-28T08:46:59;101739.84;;;3.00;66.76
78313;BME280;67568;47.438;21.408;2023-02-28T08:49:25;101742.09;;;3.17;65.21
78313;BME280;67568;47.438;21.408;2023-02-28T08:51:52;101747.22;;;3.38;65.43
78313;BME280;67568;47.438;21.408;2023-02-28T08:54:21;101756.16;;;3.58;65.02
78313;BME280;67568;47.438;21.408;2023-02-28T08:56:47;101758.91;;;3.58;64.06
78313;BME280;67568;47.438;21.408;2023-02-28T08:59:14;101754.41;;;3.71;63.70
78313;BME280;67568;47.438;21.408;2023-02-28T09:01:45;101755.44;;;3.70;63.38
78313;BME280;67568;47.438;21.408;2023-02-28T09:04:14;101760.66;;;3.78;63.05
78313;BME280;67568;47.438;21.408;2023-02-28T09:06:45;101750.94;;;3.82;62.76
78313;BME280;67568;47.438;21.408;2023-02-28T09:09:12;101747.72;;;3.60;62.78
78313;BME280;67568;47.438;21.408;2023-02-28T09:11:44;101760.63;;;3.53;63.47
78313;BME280;67568;47.438;21.408;2023-02-28T09:14:11;101756.50;;;3.69;63.12
78313;BME280;67568;47.438;21.408;2023-02-28T09:16:38;101759.19;;;3.75;62.63
78313;BME280;67568;47.438;21.408;2023-02-28T09:19:12;101756.47;;;3.75;62.35
78313;BME280;67568;47.438;21.408;2023-02-28T09:21:45;101759.34;;;3.87;62.77
78313;BME280;67568;47.438;21.408;2023-02-28T09:24:12;101750.53;;;3.78;62.65
78313;BME280;67568;47.438;21.408;2023-02-28T09:26:38;101760.50;;;3.98;64.12
78313;BME280;67568;47.438;21.408;2023-02-28T09:29:16;101766.50;;;3.88;63.16
78313;BME280;67568;47.438;21.408;2023-02-28T09:31:43;101767.28;;;3.95;63.52
78313;BME280;67568;47.438;21.408;2023-02-28T09:34:14;101771.44;;;4.04;61.95
78313;BME280;67568;47.438;21.408;2023-02-28T09:36:44;101777.88;;;4.17;62.50
78313;BME280;67568;47.438;21.408;2023-02-28T09:39:12;101773.47;;;4.16;62.48
78313;BME280;67568;47.438;21.408;2023-02-28T09:41:52;101770.06;;;4.39;62.12
78313;BME280;67568;47.438;21.408;2023-02-28T09:44:41;101770.16;;;4.50;62.50
78313;BME280;67568;47.438;21.408;2023-02-28T09:50:11;101759.72;;;4.78;60.64
78313;BME280;67568;47.438;21.408;2023-02-28T09:52:48;101762.06;;;4.37;60.53
78313;BME280;67568;47.438;21.408;2023-02-28T09:55:30;101755.38;;;4.51;60.85
78313;BME280;67568;47.438;21.408;2023-02-28T09:58:18;101760.09;;;4.44;61.54
78313;BME280;67568;47.438;21.408;2023-02-28T10:00:51;101760.69;;;4.46;61.49
78313;BME280;67568;47.438;21.408;2023-02-28T10:03:25;101759.59;;;4.72;60.65
78313;BME280;67568;47.438;21.408;2023-02-28T10:08:30;101760.41;;;4.55;60.80
78313;BME280;67568;47.438;21.408;2023-02-28T10:11:06;101753.91;;;4.49;61.31
78313;BME280;67568;47.438;21.408;2023-02-28T10:16:56;101756.84;;;4.72;60.69
78313;BME280;67568;47.438;21.408;2023-02-28T10:19:33;101755.69;;;4.62;61.00
78313;BME280;67568;47.438;21.408;2023-02-28T10:25:28;101750.31;;;5.04;60.39
78313;BME280;67568;47.438;21.408;2023-02-28T10:28:11;101747.69;;;4.79;60.71
78313;BME280;67568;47.438;21.408;2023-02-28T10:30:50;101745.16;;;4.95;60.92
78313;BME280;67568;47.438;21.408;2023-02-28T10:35:55;101745.22;;;5.07;60.74
78313;BME280;67568;47.438;21.408;2023-02-28T10:38:28;101734.97;;;5.14;60.82
78313;BME280;67568;47.438;21.408;2023-02-28T10:43:30;101742.06;;;5.04;60.05
78313;BME280;67568;47.438;21.408;2023-02-28T10:48:40;101723.72;;;4.86;61.22
78313;BME280;67568;47.438;21.408;2023-02-28T10:51:10;101723.34;;;4.82;61.75
78313;BME280;67568;47.438;21.408;2023-02-28T10:53:54;101734.34;;;4.82;61.87
78313;BME280;67568;47.438;21.408;2023-02-28T10:56:29;101730.91;;;4.87;60.72
78313;BME280;67568;47.438;21.408;2023-02-28T10:59:00;101732.25;;;4.78;61.30
78313;BME280;67568;47.438;21.408;2023-02-28T11:03:59;101728.59;;;5.02;61.78
78313;BME280;67568;47.438;21.408;2023-02-28T11:06:33;101731.56;;;5.01;61.85
78313;BME280;67568;47.438;21.408;2023-02-28T11:09:13;101721.91;;;4.98;61.15
78313;BME280;67568;47.438;21.408;2023-02-28T11:11:46;101719.66;;;5.07;61.04
78313;BME280;67568;47.438;21.408;2023-02-28T11:14:24;101723.56;;;4.99;61.36
78313;BME280;67568;47.438;21.408;2023-02-28T11:16:53;101710.81;;;5.05;60.93
78313;BME280;67568;47.438;21.408;2023-02-28T11:22:00;101715.88;;;4.71;62.27
78313;BME280;67568;47.438;21.408;2023-02-28T11:24:34;101709.59;;;5.01;61.95
78313;BME280;67568;47.438;21.408;2023-02-28T11:30:01;101704.19;;;4.94;61.67
78313;BME280;67568;47.438;21.408;2023-02-28T11:32:30;101698.00;;;4.99;62.31
78313;BME280;67568;47.438;21.408;2023-02-28T11:35:02;101711.38;;;5.25;60.71
78313;BME280;67568;47.438;21.408;2023-02-28T11:37:32;101700.19;;;5.08;61.47
78313;BME280;67568;47.438;21.408;2023-02-28T11:39:59;101706.34;;;5.22;60.69
78313;BME280;67568;47.438;21.408;2023-02-28T11:59:03;101691.88;;;5.57;60.25
78313;BME280;67568;47.438;21.408;2023-02-28T12:07:31;101695.00;;;5.18;59.93
78313;BME280;67568;47.438;21.408;2023-02-28T12:10:30;101701.75;;;5.04;61.32
78313;BME280;67568;47.438;21.408;2023-02-28T12:26:43;101696.28;;;5.16;61.02
78313;BME280;67568;47.438;21.408;2023-02-28T12:29:30;101700.56;;;5.12;60.58
78313;BME280;67568;47.438;21.408;2023-02-28T12:32:05;101694.16;;;5.18;60.26
78313;BME280;67568;47.438;21.408;2023-02-28T12:34:37;101698.72;;;5.24;59.61
78313;BME280;67568;47.438;21.408;2023-02-28T12:37:10;101693.22;;;5.24;60.08
78313;BME280;67568;47.438;21.408;2023-02-28T12:39:48;101692.75;;;5.27;59.93
78313;BME280;67568;47.438;21.408;2023-02-28T12:42:25;101690.59;;;5.29;59.16
78313;BME280;67568;47.438;21.408;2023-02-28T12:44:57;101692.09;;;5.44;59.85
78313;BME280;67568;47.438;21.408;2023-02-28T12:47:25;101686.78;;;5.30;60.45
78313;BME280;67568;47.438;21.408;2023-02-28T12:50:02;101683.56;;;5.33;60.13
78313;BME280;67568;47.438;21.408;2023-02-28T13:06:38;101681.22;;;5.60;59.28
78313;BME280;67568;47.438;21.408;2023-02-28T13:09:12;101682.78;;;5.56;58.32
78313;BME280;67568;47.438;21.408;2023-02-28T13:11:44;101677.75;;;5.53;58.64
78313;BME280;67568;47.438;21.408;2023-02-28T13:17:02;101682.41;;;5.41;59.05
78313;BME280;67568;47.438;21.408;2023-02-28T13:19:42;101687.41;;;5.32;58.99
78313;BME280;67568;47.438;21.408;2023-02-28T13:22:36;101687.97;;;5.34;59.56
78313;BME280;67568;47.438;21.408;2023-02-28T13:28:12;101683.72;;;5.38;59.29
78313;BME280;67568;47.438;21.408;2023-02-28T13:31:04;101676.44;;;5.44;60.04
78313;BME280;67568;47.438;21.408;2023-02-28T13:33:36;101669.38;;;5.48;60.18
78313;BME280;67568;47.438;21.408;2023-02-28T13:36:22;101678.47;;;5.49;59.32
78313;BME280;67568;47.438;21.408;2023-02-28T13:38:54;101668.44;;;5.54;59.23
78313;BME280;67568;47.438;21.408;2023-02-28T13:41:45;101666.16;;;5.51;59.77
78313;BME280;67568;47.438;21.408;2023-02-28T13:44:17;101666.41;;;5.50;59.39
78313;BME280;67568;47.438;21.408;2023-02-28T13:49:29;101665.34;;;5.74;59.70
78313;BME280;67568;47.438;21.408;2023-02-28T13:57:40;101656.03;;;5.75;58.95
78313;BME280;67568;47.438;21.408;2023-02-28T14:06:52;101650.63;;;5.57;58.89
78313;BME280;67568;47.438;21.408;2023-02-28T14:11:56;101643.13;;;5.64;59.14
78313;BME280;67568;47.438;21.408;2023-02-28T14:17:07;101651.03;;;5.72;58.76
78313;BME280;67568;47.438;21.408;2023-02-28T14:19:49;101644.09;;;5.70;58.43
78313;BME280;67568;47.438;21.408;2023-02-28T14:25:29;101643.34;;;5.86;58.15
78313;BME280;67568;47.438;21.408;2023-02-28T14:31:07;101631.66;;;5.91;58.36
78313;BME280;67568;47.438;21.408;2023-02-28T14:36:36;101631.91;;;5.89;58.82
78313;BME280;67568;47.438;21.408;2023-02-28T14:39:15;101638.59;;;6.05;58.41
78313;BME280;67568;47.438;21.408;2023-02-28T14:41:44;101626.53;;;5.94;57.80
78313;BME280;67568;47.438;21.408;2023-02-28T14:44:19;101636.34;;;6.02;57.53
78313;BME280;67568;47.438;21.408;2023-02-28T14:46:53;101625.47;;;6.07;57.41
78313;BME280;67568;47.438;21.408;2023-02-28T14:49:28;101635.25;;;6.03;57.08
78313;BME280;67568;47.438;21.408;2023-02-28T14:54:44;101614.56;;;6.00;57.95
78313;BME280;67568;47.438;21.408;2023-02-28T14:57:25;101622.09;;;6.05;57.25
78313;BME280;67568;47.438;21.408;2023-02-28T15:00:15;101619.97;;;5.95;57.10
78313;BME280;67568;47.438;21.408;2023-02-28T15:02:42;101612.66;;;6.01;56.71
78313;BME280;67568;47.438;21.408;2023-02-28T15:07:39;101614.69;;;5.94;58.41
78313;BME280;67568;47.438;21.408;2023-02-28T15:10:16;101612.78;;;5.94;58.02
78313;BME280;67568;47.438;21.408;2023-02-28T15:12:58;101616.22;;;5.90;57.60
78313;BME280;67568;47.438;21.408;2023-02-28T15:15:43;101621.25;;;5.81;57.82
78313;BME280;67568;47.438;21.408;2023-02-28T15:18:48;101630.81;;;5.78;58.59
78313;BME280;67568;47.438;21.408;2023-02-28T15:21:37;101634.75;;;5.82;59.20
78313;BME280;67568;47.438;21.408;2023-02-28T15:26:46;101639.28;;;5.89;59.28
78313;BME280;67568;47.438;21.408;2023-02-28T15:29:27;101638.09;;;5.84;58.84
78313;BME280;67568;47.438;21.408;2023-02-28T15:32:05;101636.19;;;5.73;58.87
78313;BME280;67568;47.438;21.408;2023-02-28T15:34:41;101632.25;;;5.81;59.00
78313;BME280;67568;47.438;21.408;2023-02-28T15:37:40;101636.06;;;5.92;59.52
78313;BME280;67568;47.438;21.408;2023-02-28T15:40:26;101626.03;;;5.85;57.85